Time;durP1;ratioP1;P1;durP2;ratioP2;P2;SDS_P1;SDS_P2;PMS_P1;PMS_P2;Temp;Humidity;BMP_temperature;BMP_pressure;BME280_temperature;BME280_humidity;BME280_pressure;Samples;Min_cycle;Max_cycle;Signal;HPM_P1;HPM_P2
2021/10/20 00:02:13;;;;;;;2.17;2.03;;;13.80;99.90;;;;;;5031187;28;20863;-67
2021/10/20 00:04:41;;;;;;;1.00;0.60;;;13.70;99.90;;;;;;5029983;28;20992;-67
2021/10/20 00:07:09;;;;;;;1.57;1.47;;;13.70;99.90;;;;;;5031312;28;20399;-67
2021/10/20 00:09:37;;;;;;;1.40;1.07;;;13.60;99.90;;;;;;5030592;28;20420;-67
2021/10/20 00:12:07;;;;;;;3.10;1.27;;;13.60;99.90;;;;;;5031169;28;20956;-67
2021/10/20 00:14:36;;;;;;;1.63;0.90;;;13.60;99.90;;;;;;5031243;28;20416;-67
2021/10/20 00:17:04;;;;;;;1.53;0.97;;;13.70;99.90;;;;;;5031319;28;20412;-67
2021/10/20 00:19:32;;;;;;;1.13;0.80;;;13.70;99.90;;;;;;5031434;28;20872;-66
2021/10/20 00:22:00;;;;;;;2.10;1.07;;;13.70;99.90;;;;;;5031141;28;20449;-66
2021/10/20 00:24:28;;;;;;;2.23;1.80;;;13.60;99.90;;;;;;5031484;28;20475;-65
2021/10/20 00:26:57;;;;;;;2.33;2.23;;;13.50;99.90;;;;;;4992278;28;1115229;-67
2021/10/20 00:29:26;;;;;;;1.20;1.10;;;13.50;99.90;;;;;;5030543;28;20435;-67
2021/10/20 00:31:54;;;;;;;1.33;1.03;;;13.50;99.90;;;;;;5032236;28;20876;-66
2021/10/20 00:34:23;;;;;;;1.23;1.00;;;13.40;99.90;;;;;;5031920;28;20420;-67
2021/10/20 00:36:51;;;;;;;0.90;0.60;;;13.40;99.90;;;;;;5032208;28;20418;-67
2021/10/20 00:39:19;;;;;;;1.20;1.03;;;13.40;99.90;;;;;;5032069;28;20445;-67
2021/10/20 00:41:47;;;;;;;1.83;1.73;;;13.40;99.90;;;;;;5031952;28;20969;-67
2021/10/20 00:44:15;;;;;;;2.53;1.00;;;13.40;99.90;;;;;;5031832;28;20559;-68
2021/10/20 00:46:45;;;;;;;1.63;0.90;;;13.40;99.90;;;;;;5031693;28;20903;-68
2021/10/20 00:49:13;;;;;;;1.10;0.80;;;13.40;99.90;;;;;;5030041;28;20467;-68
2021/10/20 00:51:48;;;;;;;0.90;0.60;;;13.40;99.90;;;;;;5031620;28;20934;-67
2021/10/20 00:54:16;;;;;;;0.90;0.70;;;13.40;99.90;;;;;;5031150;28;20427;-68
2021/10/20 00:56:44;;;;;;;0.90;0.60;;;13.40;99.90;;;;;;5031495;28;20827;-67
2021/10/20 00:59:12;;;;;;;1.53;1.33;;;13.40;99.90;;;;;;5031225;28;20468;-67
2021/10/20 01:01:40;;;;;;;3.73;2.63;;;13.50;99.90;;;;;;5031431;28;20471;-68
2021/10/20 01:04:10;;;;;;;2.20;0.90;;;13.50;99.90;;;;;;5031091;28;20519;-66
2021/10/20 01:06:38;;;;;;;1.13;1.00;;;13.50;99.90;;;;;;5031391;28;20383;-68
2021/10/20 01:12:53;;;;;;;0.90;0.57;;;13.50;99.90;;;;;;5031709;28;20920;-66
2021/10/20 01:15:26;;;;;;;1.40;0.97;;;13.50;99.90;;;;;;5012134;28;20432;-66
2021/10/20 01:17:54;;;;;;;0.90;0.70;;;13.40;99.90;;;;;;5030947;28;20432;-66
2021/10/20 01:20:26;;;;;;;1.77;1.13;;;13.40;99.90;;;;;;5031541;28;20379;-66
2021/10/20 01:22:55;;;;;;;1.80;0.90;;;13.50;99.90;;;;;;5031544;28;20453;-66
2021/10/20 01:25:24;;;;;;;0.80;0.50;;;13.40;99.90;;;;;;5031683;28;20399;-67
2021/10/20 01:27:52;;;;;;;2.13;1.67;;;13.40;99.90;;;;;;5031290;28;20778;-67
2021/10/20 01:30:20;;;;;;;1.13;0.87;;;13.40;99.90;;;;;;5029934;28;20406;-67
2021/10/20 01:32:48;;;;;;;6.50;1.57;;;13.40;99.90;;;;;;5030993;28;20452;-65
2021/10/20 01:35:16;;;;;;;1.13;0.90;;;13.40;99.90;;;;;;5031294;28;20800;-66
2021/10/20 01:37:45;;;;;;;2.40;0.90;;;13.40;99.90;;;;;;5030918;28;20419;-67
2021/10/20 01:40:15;;;;;;;2.00;1.80;;;13.40;99.90;;;;;;5030963;28;20866;-66
2021/10/20 01:42:43;;;;;;;1.30;0.97;;;13.40;99.90;;;;;;5030231;28;20843;-67
2021/10/20 01:45:12;;;;;;;1.67;1.53;;;13.40;99.90;;;;;;5030530;28;20420;-67
2021/10/20 01:47:40;;;;;;;1.30;1.20;;;13.30;99.90;;;;;;5030362;28;20463;-67
2021/10/20 01:50:11;;;;;;;1.37;1.00;;;13.40;99.90;;;;;;5031029;28;20893;-67
2021/10/20 01:52:39;;;;;;;3.33;1.00;;;13.40;99.90;;;;;;5030601;28;20710;-67
2021/10/20 01:55:09;;;;;;;2.50;1.23;;;13.40;99.90;;;;;;5030437;28;20427;-67
2021/10/20 01:57:38;;;;;;;2.07;1.10;;;13.40;99.90;;;;;;5030798;28;20435;-66
2021/10/20 02:00:07;;;;;;;1.87;1.13;;;13.30;99.90;;;;;;5030931;28;20424;-68
2021/10/20 02:02:42;;;;;;;1.43;1.33;;;13.40;99.90;;;;;;5030836;28;20454;-68
2021/10/20 02:05:11;;;;;;;1.43;1.33;;;13.40;99.90;;;;;;5031681;28;20408;-66
2021/10/20 02:07:40;;;;;;;2.00;1.87;;;13.30;99.90;;;;;;5029950;28;20402;-68
2021/10/20 02:10:09;;;;;;;1.00;0.83;;;13.40;99.90;;;;;;5030763;28;20426;-67
2021/10/20 02:12:39;;;;;;;2.67;2.43;;;13.40;99.90;;;;;;5028957;28;20459;-66
2021/10/20 02:15:08;;;;;;;2.30;2.10;;;13.40;99.90;;;;;;5030260;28;20416;-66
2021/10/20 02:17:37;;;;;;;0.97;0.50;;;13.40;99.90;;;;;;5030608;28;20427;-67
2021/10/20 02:20:08;;;;;;;1.50;1.00;;;13.40;99.90;;;;;;5031065;28;20424;-67
2021/10/20 02:22:36;;;;;;;3.43;0.87;;;13.40;99.90;;;;;;5031171;28;20478;-66
2021/10/20 02:25:05;;;;;;;2.20;1.57;;;13.30;99.90;;;;;;5030903;28;20405;-67
2021/10/20 02:27:34;;;;;;;3.17;2.80;;;13.40;99.90;;;;;;5031732;28;21178;-65
2021/10/20 02:30:05;;;;;;;3.43;1.20;;;13.30;99.90;;;;;;5031219;28;20414;-67
2021/10/20 02:32:34;;;;;;;1.97;1.27;;;13.30;99.90;;;;;;5032479;28;20475;-66
2021/10/20 02:35:04;;;;;;;1.03;0.70;;;13.30;99.90;;;;;;5034796;28;20395;-66
2021/10/20 02:37:33;;;;;;;3.40;1.37;;;13.30;99.90;;;;;;5033988;28;20897;-66
2021/10/20 02:40:01;;;;;;;1.60;1.50;;;13.20;99.90;;;;;;5034144;28;20424;-66
2021/10/20 02:42:29;;;;;;;2.27;1.00;;;13.20;99.90;;;;;;5033995;28;20474;-67
2021/10/20 02:44:57;;;;;;;1.43;0.83;;;13.20;99.90;;;;;;5033686;28;20795;-67
2021/10/20 02:47:27;;;;;;;1.30;1.10;;;13.20;99.90;;;;;;5033723;28;20502;-67
2021/10/20 02:49:55;;;;;;;1.10;0.90;;;13.10;99.90;;;;;;5033809;28;20398;-67
2021/10/20 02:52:23;;;;;;;1.00;0.87;;;13.10;99.90;;;;;;5033912;28;20436;-67
2021/10/20 02:54:51;;;;;;;1.27;0.80;;;13.10;99.90;;;;;;5033542;28;20387;-67
2021/10/20 02:57:19;;;;;;;2.37;1.60;;;13.10;99.90;;;;;;5016074;28;20410;-66
2021/10/20 02:59:48;;;;;;;1.43;1.07;;;13.10;99.90;;;;;;5034018;28;20424;-67
2021/10/20 03:02:16;;;;;;;1.57;1.20;;;13.00;99.90;;;;;;5033616;28;20475;-67
2021/10/20 03:04:47;;;;;;;1.40;0.93;;;13.00;99.90;;;;;;5033474;28;20428;-67
2021/10/20 03:07:15;;;;;;;7.27;1.73;;;13.00;99.90;;;;;;5032296;28;20811;-68
2021/10/20 03:09:43;;;;;;;2.00;1.73;;;13.00;99.90;;;;;;5033755;28;20424;-67
2021/10/20 03:12:11;;;;;;;1.50;1.07;;;12.90;99.90;;;;;;5032170;28;20472;-66
2021/10/20 03:14:39;;;;;;;1.07;0.93;;;12.90;99.90;;;;;;5015203;28;20432;-67
2021/10/20 03:17:08;;;;;;;1.20;1.07;;;12.90;99.90;;;;;;5033281;28;20834;-67
2021/10/20 03:19:36;;;;;;;3.70;2.17;;;12.90;99.90;;;;;;5032991;28;20423;-66
2021/10/20 03:22:07;;;;;;;2.00;1.73;;;12.90;99.90;;;;;;5033231;28;20464;-67
2021/10/20 03:24:35;;;;;;;1.40;1.03;;;12.90;99.90;;;;;;5033305;28;20483;-68
2021/10/20 03:27:04;;;;;;;1.63;1.03;;;12.80;99.90;;;;;;5048247;23;20897;-64
2021/10/20 03:29:32;;;;;;;1.67;1.13;;;12.90;99.90;;;;;;5091975;28;20449;-64
2021/10/20 03:32:01;;;;;;;1.67;0.83;;;12.90;99.90;;;;;;5100812;28;20446;-64
2021/10/20 03:34:29;;;;;;;1.40;1.10;;;12.90;99.90;;;;;;5114474;28;20932;-64
2021/10/20 03:36:57;;;;;;;1.33;1.13;;;13.00;99.90;;;;;;5114233;28;20474;-64
2021/10/20 03:39:26;;;;;;;1.33;1.13;;;13.00;99.90;;;;;;5095684;28;20474;-65
2021/10/20 03:41:55;;;;;;;1.00;0.70;;;12.90;99.90;;;;;;5113760;28;20468;-64
2021/10/20 03:44:23;;;;;;;0.80;0.50;;;12.90;99.90;;;;;;5112764;28;20492;-64
2021/10/20 03:46:51;;;;;;;1.00;0.80;;;12.90;99.90;;;;;;5095559;28;20429;-65
2021/10/20 03:49:19;;;;;;;2.27;1.53;;;12.80;99.90;;;;;;5114755;28;20401;-64
2021/10/20 03:51:47;;;;;;;2.70;1.00;;;12.90;99.90;;;;;;5095646;28;20486;-64
2021/10/20 03:54:15;;;;;;;1.63;0.60;;;12.90;99.90;;;;;;5095811;28;20433;-64
2021/10/20 03:56:44;;;;;;;1.63;0.93;;;13.00;99.90;;;;;;5095505;28;20460;-64
2021/10/20 03:59:13;;;;;;;2.13;1.40;;;13.00;99.90;;;;;;5095459;28;20501;-64
2021/10/20 04:01:41;;;;;;;1.50;1.40;;;13.00;99.90;;;;;;5113612;28;20568;-64
2021/10/20 04:04:09;;;;;;;1.87;1.57;;;13.00;99.90;;;;;;5114044;28;20490;-64
2021/10/20 04:06:38;;;;;;;1.47;1.27;;;13.00;99.90;;;;;;5095313;28;20439;-64
2021/10/20 04:09:06;;;;;;;1.00;0.60;;;13.00;99.90;;;;;;5113639;28;20407;-64
2021/10/20 04:11:34;;;;;;;1.57;1.40;;;12.90;99.90;;;;;;5114059;28;20418;-63
2021/10/20 04:14:03;;;;;;;2.80;1.60;;;13.00;99.90;;;;;;5113439;28;20621;-63
2021/10/20 04:16:31;;;;;;;2.13;1.50;;;12.90;99.90;;;;;;5113418;28;20439;-64
2021/10/20 04:19:00;;;;;;;1.23;1.10;;;12.90;99.90;;;;;;5113364;28;20876;-63
2021/10/20 04:21:28;;;;;;;6.10;2.40;;;12.90;99.90;;;;;;5113015;28;20417;-63
2021/10/20 04:23:56;;;;;;;1.40;1.07;;;13.00;99.90;;;;;;5112848;28;20448;-64
2021/10/20 04:26:24;;;;;;;1.00;0.77;;;13.00;99.90;;;;;;5113071;28;20405;-64
2021/10/20 04:28:52;;;;;;;1.80;1.27;;;12.90;99.90;;;;;;5112827;28;20432;-64
2021/10/20 04:31:22;;;;;;;1.70;1.40;;;13.00;99.90;;;;;;5094679;28;21084;-65
2021/10/20 04:33:50;;;;;;;2.33;2.10;;;12.90;99.90;;;;;;5054486;28;20431;-64
2021/10/20 04:36:18;;;;;;;1.20;0.90;;;13.00;99.90;;;;;;5072449;28;20426;-64
2021/10/20 04:38:46;;;;;;;1.10;0.70;;;12.90;99.90;;;;;;5072074;28;20476;-64
2021/10/20 04:41:15;;;;;;;4.20;1.87;;;12.90;99.90;;;;;;5071869;28;20510;-64
2021/10/20 04:43:43;;;;;;;1.10;1.00;;;12.90;99.90;;;;;;5054034;28;20480;-62
2021/10/20 04:46:11;;;;;;;1.47;0.87;;;12.90;99.90;;;;;;5072011;28;20433;-63
2021/10/20 04:48:40;;;;;;;2.40;1.53;;;13.00;99.90;;;;;;5072189;28;20390;-63
2021/10/20 04:51:08;;;;;;;1.63;1.47;;;13.00;99.90;;;;;;5080748;28;20418;-64
2021/10/20 04:53:38;;;;;;;1.70;1.47;;;12.90;99.90;;;;;;5092144;28;20905;-64
2021/10/20 04:56:06;;;;;;;1.20;0.80;;;12.90;99.90;;;;;;5090319;28;20449;-63
2021/10/20 04:58:34;;;;;;;1.40;1.00;;;12.90;99.90;;;;;;5082156;28;20459;-63
2021/10/20 05:01:02;;;;;;;3.37;1.30;;;12.90;99.90;;;;;;5076833;28;20472;-63
2021/10/20 05:03:31;;;;;;;1.47;1.27;;;12.90;99.90;;;;;;5078323;28;20458;-63
2021/10/20 05:06:01;;;;;;;4.40;1.23;;;12.90;99.90;;;;;;5077993;28;20415;-65
2021/10/20 05:08:29;;;;;;;0.90;0.80;;;12.90;99.90;;;;;;5085450;28;20968;-63
2021/10/20 05:10:58;;;;;;;1.13;0.90;;;12.80;99.90;;;;;;5076842;28;21069;-63
2021/10/20 05:13:26;;;;;;;0.90;0.70;;;12.80;99.90;;;;;;5077259;28;20484;-63
2021/10/20 05:15:55;;;;;;;1.40;1.30;;;12.80;99.90;;;;;;5080118;28;20446;-63
2021/10/20 05:18:23;;;;;;;2.43;1.80;;;12.80;99.90;;;;;;5082895;28;20401;-63
2021/10/20 05:20:51;;;;;;;1.00;0.77;;;12.80;99.90;;;;;;5074722;28;20755;-65
2021/10/20 05:23:21;;;;;;;0.87;0.60;;;12.80;99.90;;;;;;5071710;28;20458;-65
2021/10/20 05:25:49;;;;;;;1.83;1.30;;;12.80;99.90;;;;;;5081791;28;20450;-66
2021/10/20 05:28:17;;;;;;;2.20;0.70;;;12.70;99.90;;;;;;5082922;28;20466;-66
2021/10/20 05:30:45;;;;;;;1.57;1.23;;;12.80;99.90;;;;;;5091017;28;20384;-65
2021/10/20 05:33:13;;;;;;;1.70;0.93;;;12.80;99.90;;;;;;5091221;28;21024;-65
2021/10/20 05:35:41;;;;;;;2.90;0.90;;;12.80;99.90;;;;;;5091576;28;20392;-65
2021/10/20 05:38:10;;;;;;;1.67;0.60;;;12.80;99.90;;;;;;5091388;28;20399;-65
2021/10/20 05:40:39;;;;;;;2.33;1.00;;;12.90;99.90;;;;;;5091488;28;20388;-66
2021/10/20 05:43:08;;;;;;;1.73;1.40;;;12.90;99.90;;;;;;5091053;28;20445;-65
2021/10/20 05:45:36;;;;;;;2.07;1.10;;;13.00;99.90;;;;;;5072281;28;20441;-65
2021/10/20 05:48:04;;;;;;;1.50;0.80;;;13.00;99.90;;;;;;5091165;28;20929;-65
2021/10/20 05:50:32;;;;;;;1.13;0.73;;;13.00;99.90;;;;;;5091358;28;20421;-66
2021/10/20 05:53:01;;;;;;;2.27;0.83;;;13.00;99.90;;;;;;5091289;28;20465;-64
2021/10/20 05:55:29;;;;;;;1.07;0.60;;;13.00;99.90;;;;;;5090889;28;20417;-63
2021/10/20 05:57:58;;;;;;;1.00;0.60;;;12.90;99.90;;;;;;5090661;28;20432;-63
2021/10/20 06:00:26;;;;;;;1.17;1.07;;;12.90;99.90;;;;;;5090103;28;20451;-65
2021/10/20 06:02:54;;;;;;;1.43;1.20;;;12.90;99.90;;;;;;5091160;28;20446;-65
2021/10/20 06:05:23;;;;;;;2.50;1.07;;;13.00;99.90;;;;;;5091716;28;20572;-65
2021/10/20 06:07:51;;;;;;;1.93;1.40;;;13.00;99.90;;;;;;5094185;28;20396;-64
2021/10/20 06:10:20;;;;;;;1.10;0.80;;;13.00;99.90;;;;;;5092853;28;20399;-65
2021/10/20 06:12:48;;;;;;;1.43;0.87;;;13.00;99.90;;;;;;5079903;28;20416;-65
2021/10/20 06:15:21;;;;;;;1.23;1.00;;;13.00;99.90;;;;;;5094438;28;20752;-65
2021/10/20 06:18:05;;;;;;;1.37;1.27;;;13.10;99.90;;;;;;5074255;28;20900;-63
2021/10/20 06:20:33;;;;;;;1.00;0.80;;;13.10;99.90;;;;;;5074282;28;20418;-66
2021/10/20 06:23:02;;;;;;;3.10;1.67;;;13.10;99.90;;;;;;5074392;28;20465;-64
2021/10/20 06:25:32;;;;;;;1.90;0.80;;;13.20;99.90;;;;;;5073878;28;20564;-66
2021/10/20 06:28:00;;;;;;;1.53;0.90;;;13.20;99.90;;;;;;5074517;28;20429;-66
2021/10/20 06:30:30;;;;;;;1.17;0.90;;;13.30;99.90;;;;;;5074741;28;20808;-65
2021/10/20 06:32:58;;;;;;;0.80;0.50;;;13.30;99.90;;;;;;5074113;28;20855;-66
2021/10/20 06:35:26;;;;;;;1.00;0.60;;;13.40;99.90;;;;;;5073625;28;20422;-65
2021/10/20 06:37:55;;;;;;;2.37;2.17;;;13.40;99.90;;;;;;5056044;28;20426;-64
2021/10/20 06:40:24;;;;;;;0.93;0.77;;;13.40;99.90;;;;;;5074370;28;20411;-65
2021/10/20 06:42:52;;;;;;;1.13;0.80;;;13.40;99.90;;;;;;5073763;28;20429;-63
2021/10/20 06:45:20;;;;;;;1.73;0.80;;;13.40;99.90;;;;;;5073077;28;20450;-65
2021/10/20 06:47:51;;;;;;;1.80;1.20;;;13.40;99.90;;;;;;5074595;28;20910;-65
2021/10/20 06:50:20;;;;;;;3.30;0.77;;;13.40;99.90;;;;;;5074880;28;20476;-65
2021/10/20 06:52:48;;;;;;;1.23;0.60;;;13.40;99.90;;;;;;5074236;28;20468;-65
2021/10/20 06:55:16;;;;;;;1.30;1.10;;;13.40;99.90;;;;;;5074370;28;20394;-65
2021/10/20 06:57:45;;;;;;;0.90;0.60;;;13.50;99.90;;;;;;5074385;28;20418;-65
2021/10/20 07:00:13;;;;;;;1.10;0.83;;;13.50;99.90;;;;;;5074519;28;20477;-65
2021/10/20 07:02:42;;;;;;;1.03;0.83;;;13.50;99.90;;;;;;5074366;28;20455;-65
2021/10/20 07:05:11;;;;;;;0.90;0.60;;;13.60;99.90;;;;;;5074265;28;20461;-67
2021/10/20 07:07:39;;;;;;;1.33;0.70;;;13.60;99.90;;;;;;5074396;28;20380;-64
2021/10/20 07:10:09;;;;;;;0.97;0.63;;;13.60;99.90;;;;;;5074230;28;20951;-64
2021/10/20 07:12:38;;;;;;;2.17;1.10;;;13.60;99.90;;;;;;5073840;28;20436;-64
2021/10/20 07:15:07;;;;;;;1.87;1.77;;;13.60;99.90;;;;;;5073972;28;20418;-65
2021/10/20 07:17:35;;;;;;;1.33;0.93;;;13.60;99.90;;;;;;5074067;28;20460;-65
2021/10/20 07:20:05;;;;;;;0.90;0.70;;;13.70;99.90;;;;;;5073902;28;20796;-64
2021/10/20 07:22:38;;;;;;;1.50;0.83;;;13.70;99.90;;;;;;5073800;28;20785;-65
2021/10/20 07:25:09;;;;;;;1.87;1.77;;;13.70;99.90;;;;;;5073705;28;20496;-64
2021/10/20 07:27:38;;;;;;;1.30;0.90;;;13.80;99.90;;;;;;5074043;28;20408;-65
2021/10/20 07:30:08;;;;;;;1.43;1.17;;;13.80;99.90;;;;;;5074853;28;20393;-65
2021/10/20 07:32:39;;;;;;;1.53;1.13;;;13.80;99.90;;;;;;5074617;28;20889;-65
2021/10/20 07:35:08;;;;;;;1.60;0.80;;;13.90;99.90;;;;;;5074726;28;20399;-65
2021/10/20 07:37:38;;;;;;;0.90;0.77;;;14.00;99.90;;;;;;5074974;28;20414;-65
2021/10/20 07:40:08;;;;;;;3.53;1.00;;;14.10;99.90;;;;;;5075373;28;20419;-64
2021/10/20 07:42:37;;;;;;;1.00;0.90;;;14.30;99.90;;;;;;5076227;28;20442;-65
2021/10/20 07:45:07;;;;;;;1.57;0.83;;;14.40;99.90;;;;;;5077314;28;20462;-63
2021/10/20 07:47:36;;;;;;;3.37;1.30;;;14.60;99.90;;;;;;5079617;28;20399;-64
2021/10/20 07:50:05;;;;;;;2.40;2.20;;;14.60;99.90;;;;;;5075692;28;20887;-64
2021/10/20 07:52:34;;;;;;;1.63;0.90;;;14.70;99.90;;;;;;5073726;28;20417;-63
2021/10/20 07:55:05;;;;;;;0.90;0.70;;;14.80;99.90;;;;;;5073915;28;20401;-63
2021/10/20 07:57:33;;;;;;;1.70;1.33;;;14.80;99.90;;;;;;5073908;28;20388;-65
2021/10/20 08:00:02;;;;;;;1.00;0.70;;;14.80;99.90;;;;;;5073926;28;21015;-64
2021/10/20 08:02:33;;;;;;;2.80;1.17;;;15.00;99.90;;;;;;5073551;28;20771;-64
2021/10/20 08:05:01;;;;;;;1.27;0.90;;;15.00;99.90;;;;;;5073309;28;20466;-63
2021/10/20 08:07:29;;;;;;;1.30;0.80;;;15.10;99.90;;;;;;5073344;28;20427;-63
2021/10/20 08:09:58;;;;;;;1.00;0.60;;;15.20;99.90;;;;;;5073380;28;20439;-63
2021/10/20 08:12:27;;;;;;;4.30;2.30;;;15.50;99.90;;;;;;5055311;28;20450;-63
2021/10/20 08:14:56;;;;;;;1.40;0.90;;;15.80;99.90;;;;;;5072788;28;20472;-63
2021/10/20 08:17:24;;;;;;;1.87;1.27;;;16.10;99.90;;;;;;5072937;28;20381;-64
2021/10/20 08:19:52;;;;;;;1.00;0.73;;;16.50;99.90;;;;;;5073179;28;20421;-63
2021/10/20 08:22:21;;;;;;;1.80;1.10;;;16.80;99.90;;;;;;5072640;28;20409;-63
2021/10/20 08:24:49;;;;;;;1.30;0.80;;;17.10;99.90;;;;;;5072452;28;20450;-61
2021/10/20 08:27:17;;;;;;;1.40;1.23;;;17.30;99.90;;;;;;5072441;28;20393;-62
2021/10/20 08:29:47;;;;;;;1.30;0.90;;;17.30;99.90;;;;;;5054169;28;20413;-62
2021/10/20 08:32:15;;;;;;;1.63;0.70;;;17.40;99.90;;;;;;5072969;28;20447;-63
2021/10/20 08:34:43;;;;;;;1.13;0.70;;;17.40;99.90;;;;;;5072614;28;20434;-64
2021/10/20 08:37:11;;;;;;;2.70;1.20;;;17.50;99.90;;;;;;5072559;28;20434;-64
2021/10/20 08:39:39;;;;;;;1.73;1.37;;;17.50;99.90;;;;;;5072523;28;20404;-63
2021/10/20 08:42:07;;;;;;;1.60;1.40;;;17.70;99.90;;;;;;5054814;28;20749;-64
2021/10/20 08:44:55;;;;;;;2.70;1.33;;;17.70;99.90;;;;;;5072349;28;20388;-63
2021/10/20 08:47:24;;;;;;;1.20;0.87;;;17.60;99.90;;;;;;5072434;28;20415;-64
2021/10/20 08:49:53;;;;;;;1.10;0.80;;;17.60;99.90;;;;;;5072276;28;20396;-62
2021/10/20 08:52:21;;;;;;;1.70;1.37;;;17.40;99.90;;;;;;5072397;28;20456;-63
2021/10/20 08:54:49;;;;;;;2.60;2.30;;;17.30;99.90;;;;;;5072127;28;20487;-64
2021/10/20 08:57:17;;;;;;;1.30;1.20;;;17.20;99.90;;;;;;5072197;28;20426;-64
2021/10/20 08:59:45;;;;;;;1.00;0.70;;;17.20;99.90;;;;;;5072016;28;20397;-64
2021/10/20 09:02:15;;;;;;;1.00;0.70;;;17.20;99.90;;;;;;5071978;28;20445;-64
2021/10/20 09:04:44;;;;;;;1.00;0.70;;;17.20;99.90;;;;;;5071913;28;20537;-64
2021/10/20 09:07:14;;;;;;;2.10;0.90;;;17.10;99.90;;;;;;5072124;28;20433;-64
2021/10/20 09:09:43;;;;;;;1.30;0.80;;;17.00;99.90;;;;;;5072716;28;20911;-65
2021/10/20 09:12:11;;;;;;;1.10;0.80;;;17.10;99.90;;;;;;5072826;28;20479;-62
2021/10/20 09:14:39;;;;;;;2.50;0.90;;;17.10;99.90;;;;;;5072979;28;20957;-63
2021/10/20 09:17:07;;;;;;;0.90;0.60;;;17.20;99.90;;;;;;5073269;28;20418;-64
2021/10/20 09:19:37;;;;;;;1.00;0.77;;;17.20;99.90;;;;;;5072874;28;20397;-64
2021/10/20 09:22:09;;;;;;;1.53;0.70;;;17.20;99.90;;;;;;5073007;28;20444;-64
2021/10/20 09:24:39;;;;;;;1.30;1.00;;;17.30;99.90;;;;;;5073013;28;20397;-63
2021/10/20 09:27:17;;;;;;;1.10;0.80;;;17.40;99.90;;;;;;5073336;28;20437;-64
2021/10/20 09:29:45;;;;;;;2.10;0.80;;;17.30;99.90;;;;;;5020616;28;20729;-69
2021/10/20 09:32:13;;;;;;;2.97;1.23;;;17.20;99.90;;;;;;5012272;28;21054;-69
2021/10/20 09:34:43;;;;;;;1.47;1.07;;;17.10;99.90;;;;;;5011341;28;20431;-68
2021/10/20 09:37:11;;;;;;;1.97;1.77;;;17.10;99.90;;;;;;5011574;28;20399;-68
2021/10/20 09:39:39;;;;;;;1.00;0.60;;;17.00;99.90;;;;;;5010581;28;20949;-67
2021/10/20 09:42:09;;;;;;;1.33;0.73;;;17.00;99.90;;;;;;5011222;28;20415;-69
2021/10/20 09:44:47;;;;;;;1.20;1.03;;;16.90;99.90;;;;;;5012588;28;20407;-68
2021/10/20 09:47:16;;;;;;;1.37;0.70;;;17.00;99.90;;;;;;5012447;28;20546;-68
2021/10/20 09:49:49;;;;;;;1.00;0.80;;;17.00;99.90;;;;;;5012583;28;20463;-68
2021/10/20 09:52:21;;;;;;;1.30;1.03;;;17.00;99.90;;;;;;5012738;28;20441;-67
2021/10/20 09:54:50;;;;;;;1.30;0.70;;;17.00;99.90;;;;;;5011893;28;20524;-68
2021/10/20 09:57:18;;;;;;;2.03;1.23;;;17.10;99.90;;;;;;5012264;28;20399;-67
2021/10/20 09:59:46;;;;;;;1.73;0.70;;;17.00;99.90;;;;;;5011757;28;20384;-66
2021/10/20 10:02:14;;;;;;;3.10;1.37;;;17.00;99.90;;;;;;5011918;28;20514;-70
2021/10/20 10:04:43;;;;;;;1.53;1.03;;;17.00;99.90;;;;;;5011577;28;20859;-67
2021/10/20 10:07:12;;;;;;;1.27;0.87;;;17.00;99.90;;;;;;5011582;28;20442;-67
2021/10/20 10:09:41;;;;;;;2.30;1.10;;;16.90;99.90;;;;;;5011477;28;20411;-67
2021/10/20 10:12:14;;;;;;;1.40;1.13;;;16.90;99.90;;;;;;5011635;28;20484;-68
2021/10/20 10:14:46;;;;;;;1.07;0.70;;;16.70;99.90;;;;;;5010255;28;20998;-68
2021/10/20 10:17:18;;;;;;;1.00;0.80;;;16.60;99.90;;;;;;5010102;28;20443;-66
2021/10/20 10:19:46;;;;;;;1.30;0.83;;;16.50;99.90;;;;;;5011419;28;20441;-68
2021/10/20 10:22:26;;;;;;;1.10;0.83;;;16.50;99.90;;;;;;5010348;28;20837;-67
2021/10/20 10:24:55;;;;;;;1.07;0.87;;;16.60;99.90;;;;;;5010363;28;20418;-68
2021/10/20 10:27:23;;;;;;;0.90;0.50;;;16.70;99.90;;;;;;5011255;28;20469;-69
2021/10/20 10:29:54;;;;;;;2.40;1.47;;;16.70;99.90;;;;;;5011555;28;20423;-68
2021/10/20 10:32:42;;;;;;;1.10;0.80;;;16.60;99.90;;;;;;5009908;28;20964;-68
2021/10/20 10:35:13;;;;;;;2.07;1.50;;;16.60;99.90;;;;;;5010458;28;20916;-68
2021/10/20 10:37:45;;;;;;;1.37;0.60;;;16.70;99.90;;;;;;5011497;28;20894;-69
2021/10/20 10:40:21;;;;;;;1.20;1.00;;;17.00;99.90;;;;;;5011526;28;20451;-68
2021/10/20 10:42:50;;;;;;;1.00;0.80;;;17.30;99.90;;;;;;5011640;28;20415;-69
2021/10/20 10:45:22;;;;;;;0.90;0.50;;;17.40;99.90;;;;;;5010530;28;20844;-69
2021/10/20 10:47:58;;;;;;;2.40;0.80;;;17.40;99.90;;;;;;5011605;28;20485;-69
2021/10/20 10:50:42;;;;;;;0.90;0.50;;;17.20;99.90;;;;;;5010944;28;20415;-69
2021/10/20 10:53:27;;;;;;;2.00;1.70;;;17.00;99.90;;;;;;5013598;28;20454;-68
2021/10/20 10:56:06;;;;;;;1.60;1.40;;;17.00;99.90;;;;;;5014741;28;20435;-68
2021/10/20 10:58:53;;;;;;;1.00;0.77;;;16.80;99.90;;;;;;5014995;28;20534;-68
2021/10/20 11:01:42;;;;;;;1.10;0.70;;;16.70;99.90;;;;;;5014552;28;20868;-68
2021/10/20 11:04:21;;;;;;;1.67;1.57;;;16.70;99.90;;;;;;5013024;28;20433;-68
2021/10/20 11:06:51;;;;;;;1.43;1.33;;;16.60;99.90;;;;;;5014562;28;20460;-68
2021/10/20 11:09:26;;;;;;;2.27;0.60;;;16.40;99.90;;;;;;5014594;28;20872;-68
2021/10/20 11:11:56;;;;;;;1.10;0.60;;;16.30;99.90;;;;;;5014502;28;20535;-67
2021/10/20 11:14:26;;;;;;;0.90;0.60;;;16.20;99.90;;;;;;5013949;28;20421;-67
2021/10/20 11:16:58;;;;;;;0.90;0.50;;;16.40;99.90;;;;;;5014420;28;20433;-68
2021/10/20 11:19:27;;;;;;;0.90;0.60;;;16.40;99.90;;;;;;5014699;28;20409;-70
2021/10/20 11:21:57;;;;;;;1.70;0.80;;;16.60;99.90;;;;;;5014596;28;20441;-68
2021/10/20 11:24:27;;;;;;;1.13;0.97;;;16.70;99.90;;;;;;5014510;28;20410;-67
2021/10/20 11:26:58;;;;;;;2.93;1.23;;;17.00;99.90;;;;;;5013097;28;20464;-68
2021/10/20 11:29:26;;;;;;;1.30;0.70;;;17.20;99.90;;;;;;5014114;28;20447;-68
2021/10/20 11:31:56;;;;;;;3.63;2.33;;;17.20;99.90;;;;;;5014237;28;20467;-70
2021/10/20 11:34:27;;;;;;;1.57;0.80;;;17.30;99.90;;;;;;5014015;28;20431;-68
2021/10/20 11:37:01;;;;;;;3.57;1.53;;;17.30;99.90;;;;;;5014088;28;20407;-67
2021/10/20 11:39:31;;;;;;;2.13;1.20;;;17.20;99.90;;;;;;5014323;28;20784;-67
2021/10/20 11:42:01;;;;;;;1.30;0.97;;;17.20;99.90;;;;;;5013771;28;20482;-68
2021/10/20 11:44:31;;;;;;;3.20;1.93;;;17.20;99.90;;;;;;5012610;28;20415;-67
2021/10/20 11:47:00;;;;;;;1.50;0.80;;;17.20;99.90;;;;;;5013890;28;20431;-68
2021/10/20 11:49:29;;;;;;;2.30;1.23;;;17.20;99.90;;;;;;5013753;28;20392;-68
2021/10/20 11:51:58;;;;;;;2.60;1.93;;;17.40;99.90;;;;;;5013489;28;20448;-66
2021/10/20 11:54:26;;;;;;;1.93;0.80;;;17.40;99.90;;;;;;5013609;28;20519;-67
2021/10/20 11:56:57;;;;;;;1.67;1.37;;;17.40;99.90;;;;;;5013592;28;20391;-68
2021/10/20 11:59:27;;;;;;;2.00;1.80;;;17.40;99.90;;;;;;5012413;28;20458;-68
2021/10/20 12:01:56;;;;;;;0.90;0.60;;;17.50;99.90;;;;;;5014066;28;20917;-67
2021/10/20 12:04:25;;;;;;;1.30;0.83;;;17.50;99.90;;;;;;5012962;28;20487;-68
2021/10/20 12:06:56;;;;;;;1.60;1.10;;;17.50;99.90;;;;;;5014399;28;20526;-67
2021/10/20 12:09:26;;;;;;;1.73;1.43;;;17.40;99.90;;;;;;5013472;28;20420;-67
2021/10/20 12:11:57;;;;;;;1.00;0.80;;;17.40;99.90;;;;;;5013187;28;20452;-68
2021/10/20 12:14:31;;;;;;;1.33;1.13;;;17.30;99.90;;;;;;5012187;28;20486;-67
2021/10/20 12:17:01;;;;;;;1.33;1.23;;;17.30;99.90;;;;;;5014285;28;20424;-68
2021/10/20 12:19:31;;;;;;;1.63;1.53;;;17.30;99.90;;;;;;5014308;28;20399;-66
2021/10/20 12:22:06;;;;;;;1.33;1.17;;;17.50;99.90;;;;;;5013106;28;20431;-69
2021/10/20 12:24:36;;;;;;;1.23;0.70;;;17.70;99.90;;;;;;5013085;28;20407;-68
2021/10/20 12:27:07;;;;;;;1.13;0.90;;;17.90;99.90;;;;;;5013252;28;20431;-67
2021/10/20 12:29:41;;;;;;;2.57;1.50;;;18.10;99.90;;;;;;5013484;28;20415;-67
2021/10/20 12:32:16;;;;;;;1.50;1.20;;;18.20;99.90;;;;;;5013713;28;20428;-68
2021/10/20 12:34:56;;;;;;;0.90;0.60;;;18.30;99.90;;;;;;5013983;28;20394;-67
2021/10/20 12:37:31;;;;;;;3.37;1.03;;;18.40;99.90;;;;;;5015499;28;20432;-67
2021/10/20 12:40:06;;;;;;;1.57;0.70;;;18.50;99.90;;;;;;5014561;28;20420;-67
2021/10/20 12:42:42;;;;;;;1.00;0.70;;;18.60;99.90;;;;;;5014482;28;20771;-68
2021/10/20 12:45:12;;;;;;;1.73;0.83;;;18.90;99.90;;;;;;5014153;28;20402;-68
2021/10/20 12:47:45;;;;;;;2.30;1.27;;;19.20;99.90;;;;;;5012605;28;20547;-68
2021/10/20 12:50:18;;;;;;;0.90;0.50;;;19.30;99.90;;;;;;5012509;28;20395;-69
2021/10/20 12:52:48;;;;;;;1.10;0.80;;;19.40;99.90;;;;;;5012100;28;20470;-68
2021/10/20 12:55:20;;;;;;;1.17;0.70;;;19.40;99.90;;;;;;5010930;28;20419;-67
2021/10/20 12:57:51;;;;;;;1.00;0.70;;;19.40;99.90;;;;;;5012490;28;20400;-68
2021/10/20 13:00:22;;;;;;;1.60;1.17;;;19.40;99.90;;;;;;5012572;28;20853;-68
2021/10/20 13:02:51;;;;;;;1.30;0.90;;;19.30;99.90;;;;;;5012395;28;20514;-68
2021/10/20 13:05:20;;;;;;;1.40;0.90;;;19.30;99.90;;;;;;5010759;28;20422;-67